Time;durP1;ratioP1;P1;durP2;ratioP2;P2;SDS_P1;SDS_P2;PMS_P1;PMS_P2;Temp;Humidity;BMP_temperature;BMP_pressure;BME280_temperature;BME280_humidity;BME280_pressure;Samples;Min_cycle;Max_cycle;Signal;HPM_P1;HPM_P2
2021/07/29 00:00:32;;;;;;;;;2.25;2.25;;;;;20.17;49.81;101065.91;4998575;28;45935;-85
2021/07/29 00:03:00;;;;;;;;;5.00;2.00;;;;;20.12;49.29;101067.59;4998756;28;45792;-86
2021/07/29 00:05:26;;;;;;;;;2.00;2.00;;;;;20.12;49.55;101067.59;4999373;28;45314;-86
2021/07/29 00:07:53;;;;;;;;;2.25;2.25;;;;;20.09;50.20;101067.53;5000664;28;45788;-85
2021/07/29 00:10:20;;;;;;;;;4.00;2.50;;;;;20.04;49.79;101066.63;5012455;28;45631;-84
2021/07/29 00:12:46;;;;;;;;;1.50;1.50;;;;;20.01;49.95;101066.59;4999176;28;45461;-85
2021/07/29 00:15:14;;;;;;;;;1.00;1.00;;;;;19.96;50.85;101061.28;4996947;28;45455;-85
2021/07/29 00:20:12;;;;;;;;;0.00;0.00;;;;;19.88;50.67;101055.97;5007547;28;46317;-85
2021/07/29 00:22:42;;;;;;;;;4.50;2.00;;;;;19.87;51.39;101063.84;5006443;28;45395;-86
2021/07/29 00:25:12;;;;;;;;;2.25;1.25;;;;;19.82;50.94;101052.34;5016896;28;45609;-85
2021/07/29 00:27:39;;;;;;;;;3.00;3.00;;;;;19.80;51.27;101061.13;5002458;28;45312;-85
2021/07/29 00:30:06;;;;;;;;;2.25;2.25;;;;;19.76;51.56;101061.94;5003462;28;47607;-85
2021/07/29 00:32:32;;;;;;;;;5.00;4.00;;;;;19.75;51.94;101054.91;5014848;28;45498;-84
2021/07/29 00:34:58;;;;;;;;;1.00;1.00;;;;;19.75;51.22;101060.19;4998215;28;45510;-85
2021/07/29 00:37:24;;;;;;;;;2.50;2.50;;;;;19.75;51.38;101069.81;4997133;28;45558;-86
2021/07/29 00:39:49;;;;;;;;;2.50;1.00;;;;;19.73;51.88;101047.91;5003422;28;45455;-86
2021/07/29 00:42:15;;;;;;;;;2.25;1.50;;;;;19.69;51.75;101047.00;5016954;28;45353;-85
2021/07/29 00:44:41;;;;;;;;;0.50;0.50;;;;;19.67;52.48;101050.44;5017820;28;45458;-85
2021/07/29 00:47:07;;;;;;;;;3.75;2.00;;;;;19.62;51.75;101064.41;5017819;28;45311;-84
2021/07/29 00:49:36;;;;;;;;;3.25;2.25;;;;;19.59;52.09;101064.38;5013222;28;46063;-84
2021/07/29 00:52:02;;;;;;;;;2.00;2.00;;;;;19.55;52.11;101054.69;5009888;28;45541;-84
2021/07/29 00:54:29;;;;;;;;;2.00;1.25;;;;;19.49;53.06;101060.75;5013999;28;45458;-84
2021/07/29 00:56:56;;;;;;;;;2.00;2.00;;;;;19.47;52.33;101058.97;5008761;28;45411;-85
2021/07/29 00:59:21;;;;;;;;;3.25;2.50;;;;;19.45;52.87;101051.09;5019149;28;45353;-84
2021/07/29 01:01:47;;;;;;;;;3.25;1.50;;;;;19.44;53.11;101059.81;5004427;28;45339;-84
2021/07/29 01:04:13;;;;;;;;;3.75;2.25;;;;;19.44;53.13;101051.94;5005430;28;45387;-86
2021/07/29 01:06:39;;;;;;;;;3.00;3.00;;;;;19.43;53.42;101055.44;5023980;28;45308;-82
2021/07/29 01:09:08;;;;;;;;;4.75;3.00;;;;;19.42;53.25;101051.03;5017787;28;45764;-81
2021/07/29 01:11:35;;;;;;;;;3.50;3.50;;;;;19.40;53.80;101051.91;5016946;28;45438;-85
2021/07/29 01:14:00;;;;;;;;;2.75;2.75;;;;;19.38;54.13;101058.88;5008962;28;45494;-80
2021/07/29 01:16:26;;;;;;;;;4.00;2.50;;;;;19.36;53.71;101048.34;5007619;28;45502;-83
2021/07/29 01:18:52;;;;;;;;;3.00;3.00;;;;;19.34;54.00;101055.31;5015424;28;45460;-78
2021/07/29 01:21:17;;;;;;;;;1.75;1.75;;;;;19.29;54.12;101062.25;5008810;28;45336;-79
2021/07/29 01:23:44;;;;;;;;;4.50;3.50;;;;;19.28;54.13;101057.84;4997461;28;45325;-82
2021/07/29 01:26:09;;;;;;;;;2.00;2.00;;;;;19.26;54.00;101063.09;4998679;28;45335;-79
2021/07/29 01:28:35;;;;;;;;;3.50;2.75;;;;;19.25;53.96;101074.47;5008210;28;45233;-78
2021/07/29 01:31:01;;;;;;;;;3.00;3.00;;;;;19.23;54.50;101064.81;4999348;28;45467;-84
2021/07/29 01:33:26;;;;;;;;;3.00;2.00;;;;;19.18;54.34;101065.63;4998747;28;45372;-85
2021/07/29 01:35:52;;;;;;;;;3.50;1.25;;;;;19.17;54.73;101066.47;4997436;28;45317;-85
2021/07/29 01:38:18;;;;;;;;;3.00;3.00;;;;;19.18;54.88;101070.88;4997523;28;45764;-84
2021/07/29 01:40:43;;;;;;;;;3.75;2.75;;;;;19.18;55.19;101067.38;4995838;28;45383;-85
2021/07/29 01:43:09;;;;;;;;;3.00;3.00;;;;;19.21;55.03;101069.16;4997020;28;45425;-84
2021/07/29 01:45:34;;;;;;;;;4.50;2.00;;;;;19.20;54.95;101075.25;5007220;28;45503;-85
2021/07/29 01:48:00;;;;;;;;;2.75;2.75;;;;;19.17;54.64;101074.34;4996590;28;47088;-87
2021/07/29 01:50:25;;;;;;;;;2.50;2.50;;;;;19.14;55.28;101086.56;5001665;28;45666;-86
2021/07/29 01:52:51;;;;;;;;;2.50;2.00;;;;;19.11;54.84;101082.16;4997083;28;45439;-84
2021/07/29 01:55:16;;;;;;;;;2.75;2.25;;;;;19.11;55.13;101068.16;5012797;28;45499;-82
2021/07/29 01:57:44;;;;;;;;;3.75;3.75;;;;;19.10;55.19;101074.28;5015226;28;46723;-83
2021/07/29 02:00:10;;;;;;;;;6.50;4.00;;;;;19.07;55.35;101071.59;5016632;28;45339;-82
2021/07/29 02:02:36;;;;;;;;;5.25;3.50;;;;;19.07;55.45;101076.84;5018375;28;45504;-83
2021/07/29 02:05:01;;;;;;;;;2.00;2.00;;;;;19.03;55.29;101091.66;5003420;28;45495;-84
2021/07/29 02:07:27;;;;;;;;;3.00;2.00;;;;;19.00;55.61;101073.25;4997353;28;46007;-83
2021/07/29 02:09:52;;;;;;;;;4.50;3.00;;;;;18.98;55.60;101070.63;4996591;28;45455;-80
2021/07/29 02:12:18;;;;;;;;;4.50;2.50;;;;;18.98;55.65;101081.09;5010787;28;45360;-86
2021/07/29 02:14:43;;;;;;;;;4.00;2.00;;;;;18.96;55.97;101082.81;5016790;28;45581;-83
2021/07/29 02:17:09;;;;;;;;;2.00;2.00;;;;;18.94;55.77;101086.28;5014588;28;45863;-83
2021/07/29 02:19:34;;;;;;;;;3.00;1.50;;;;;18.93;56.20;101074.00;5015116;28;45422;-84
2021/07/29 02:22:00;;;;;;;;;3.00;2.25;;;;;18.89;55.75;101070.44;5014247;28;45339;-84
2021/07/29 02:24:26;;;;;;;;;2.00;2.00;;;;;18.85;56.09;101064.25;4997184;28;45543;-84
2021/07/29 02:26:51;;;;;;;;;4.00;2.75;;;;;18.86;56.13;101067.78;5010034;28;45615;-82
2021/07/29 02:29:17;;;;;;;;;4.75;3.25;;;;;18.85;56.53;101076.50;5014833;28;45427;-80
2021/07/29 02:31:42;;;;;;;;;3.25;2.75;;;;;18.82;56.84;101066.84;5005263;28;45462;-81
2021/07/29 02:34:08;;;;;;;;;2.75;1.75;;;;;18.81;56.71;101067.72;5015715;28;45573;-79
2021/07/29 02:36:33;;;;;;;;;4.00;2.25;;;;;18.81;56.67;101064.19;5008639;28;45297;-80
2021/07/29 02:38:59;;;;;;;;;3.00;2.00;;;;;18.80;56.64;101073.81;4996243;28;45803;-82
2021/07/29 02:41:25;;;;;;;;;2.25;2.25;;;;;18.81;56.71;101069.44;5006342;28;45442;-82
2021/07/29 02:43:50;;;;;;;;;5.25;3.00;;;;;18.84;56.80;101075.59;5013953;28;45356;-82
2021/07/29 02:46:16;;;;;;;;;3.25;3.25;;;;;18.89;56.35;101070.44;4998838;28;45426;-83
2021/07/29 02:48:42;;;;;;;;;5.50;3.00;;;;;18.88;56.55;101073.94;4997790;28;45329;-81
2021/07/29 02:51:07;;;;;;;;;1.25;1.25;;;;;18.88;56.86;101076.56;5000664;28;45821;-80
2021/07/29 02:53:34;;;;;;;;;2.00;2.00;;;;;18.87;56.49;101082.66;4999781;28;45321;-83
2021/07/29 02:56:00;;;;;;;;;2.00;2.00;;;;;18.84;56.64;101079.97;4997292;28;46222;-83
2021/07/29 02:58:26;;;;;;;;;4.75;3.00;;;;;18.84;56.75;101086.09;4997044;28;45710;-81
2021/07/29 03:00:52;;;;;;;;;2.25;2.25;;;;;18.80;57.17;101081.69;4996062;28;45443;-83
2021/07/29 03:03:18;;;;;;;;;2.75;2.75;;;;;18.80;56.82;101086.94;4997165;28;45305;-80
2021/07/29 03:05:43;;;;;;;;;1.25;1.25;;;;;18.77;57.31;101089.50;4996209;28;45443;-82
2021/07/29 03:08:09;;;;;;;;;4.25;3.00;;;;;18.74;57.18;101092.06;5015270;28;45225;-80
2021/07/29 03:10:35;;;;;;;;;2.50;2.00;;;;;18.71;57.45;101087.66;5016076;28;45310;-80
2021/07/29 03:13:02;;;;;;;;;3.50;2.00;;;;;18.71;57.43;101092.91;5015054;28;45308;-85
2021/07/29 03:15:31;;;;;;;;;4.00;2.75;;;;;18.65;57.06;101095.44;5006813;28;45649;-85
2021/07/29 03:17:57;;;;;;;;;3.25;3.25;;;;;18.62;57.38;101097.13;4996454;28;45365;-83
2021/07/29 03:20:23;;;;;;;;;1.25;1.00;;;;;18.59;57.44;101099.69;4996633;28;45325;-83
2021/07/29 03:22:49;;;;;;;;;2.75;2.00;;;;;18.55;57.52;101097.00;4996487;28;45514;-83
2021/07/29 03:25:15;;;;;;;;;3.25;2.00;;;;;18.54;57.21;101092.63;4995758;28;45248;-83
2021/07/29 03:27:40;;;;;;;;;3.00;1.00;;;;;18.53;58.05;101098.72;4995549;28;45353;-82
2021/07/29 03:30:06;;;;;;;;;2.00;2.00;;;;;18.52;57.81;101111.81;5002645;28;45311;-79
2021/07/29 03:32:32;;;;;;;;;3.00;2.00;;;;;18.47;58.13;101095.13;5013905;28;45362;-82
2021/07/29 03:34:58;;;;;;;;;1.75;1.75;;;;;18.44;58.09;101095.09;4986305;28;45524;-82
2021/07/29 03:37:23;;;;;;;;;3.00;3.00;;;;;18.43;58.16;101088.94;5015517;28;45474;-82
2021/07/29 03:39:49;;;;;;;;;2.25;2.25;;;;;18.43;58.33;101099.44;5015904;28;45398;-83
2021/07/29 03:42:14;;;;;;;;;2.75;2.00;;;;;18.43;58.12;101099.44;5015493;28;45695;-81
2021/07/29 03:44:40;;;;;;;;;2.00;2.00;;;;;18.41;58.36;101102.03;5014774;28;46132;-83
2021/07/29 03:47:06;;;;;;;;;3.50;2.00;;;;;18.41;58.37;101107.28;5014235;28;45435;-83
2021/07/29 03:49:35;;;;;;;;;2.75;2.75;;;;;18.39;58.35;101095.88;5003242;28;45302;-81
2021/07/29 03:52:02;;;;;;;;;2.00;2.00;;;;;18.37;58.25;101094.09;5012694;28;45531;-82
2021/07/29 03:54:29;;;;;;;;;2.25;2.25;;;;;18.36;58.40;101108.91;5016409;28;46175;-82
2021/07/29 03:56:54;;;;;;;;;3.00;3.00;;;;;18.33;58.58;101102.75;5018226;28;45415;-80
2021/07/29 03:59:20;;;;;;;;;2.00;2.00;;;;;18.30;58.58;101105.34;5017670;28;45348;-77
2021/07/29 04:01:46;;;;;;;;;2.75;2.25;;;;;18.25;58.91;101103.50;4999505;28;45299;-78
2021/07/29 04:04:12;;;;;;;;;2.75;2.75;;;;;18.23;58.82;101113.06;5009742;28;46529;-82
2021/07/29 04:06:37;;;;;;;;;3.50;3.00;;;;;18.24;58.96;101101.75;5018146;28;45269;-83
2021/07/29 04:09:03;;;;;;;;;3.25;2.00;;;;;18.23;58.82;101102.59;5017550;28;45391;-84
2021/07/29 04:11:28;;;;;;;;;3.50;2.00;;;;;18.24;59.14;101106.97;5008149;28;45565;-84
2021/07/29 04:13:54;;;;;;;;;1.75;1.75;;;;;18.20;59.25;101109.53;4998077;28;45370;-84
2021/07/29 04:16:19;;;;;;;;;2.75;2.75;;;;;18.18;58.95;101108.59;4998672;28;45301;-83
2021/07/29 04:18:45;;;;;;;;;3.50;2.25;;;;;18.14;59.47;101106.81;4999620;28;45509;-82
2021/07/29 04:21:19;;;;;;;;;3.00;3.00;;;;;18.13;59.75;101113.75;5003168;28;45659;-82
2021/07/29 04:23:45;;;;;;;;;2.75;2.75;;;;;18.13;59.80;101116.38;5015954;28;45384;-81
2021/07/29 04:26:11;;;;;;;;;2.75;2.50;;;;;18.09;59.80;101115.44;5017074;28;45192;-84
2021/07/29 04:28:36;;;;;;;;;4.00;4.00;;;;;18.08;59.64;101123.28;5017836;28;45488;-83
2021/07/29 04:31:02;;;;;;;;;2.25;2.25;;;;;18.05;59.45;101120.59;5018058;28;45300;-80
2021/07/29 04:33:27;;;;;;;;;3.75;3.00;;;;;18.03;60.04;101125.78;5017617;28;46266;-82
2021/07/29 04:35:53;;;;;;;;;2.25;2.25;;;;;18.01;59.77;101117.06;5020998;28;45371;-83
2021/07/29 04:38:18;;;;;;;;;3.00;3.00;;;;;17.98;60.30;101114.38;5011549;28;45577;-84
2021/07/29 04:40:44;;;;;;;;;5.75;3.00;;;;;17.98;60.33;101116.13;4998882;28;45331;-82
2021/07/29 04:43:09;;;;;;;;;2.50;2.00;;;;;17.95;60.16;101117.78;5012374;28;46266;-83
2021/07/29 04:45:35;;;;;;;;;2.50;2.50;;;;;17.95;60.26;101119.50;5017547;28;45411;-81
2021/07/29 04:48:00;;;;;;;;;3.25;3.25;;;;;17.95;60.53;101119.50;5009902;28;45381;-83
2021/07/29 04:50:26;;;;;;;;;3.50;1.50;;;;;17.96;60.11;101121.28;4998320;28;45591;-82
2021/07/29 04:52:53;;;;;;;;;3.00;3.00;;;;;17.97;60.23;101122.22;5006833;28;45614;-80
2021/07/29 04:55:20;;;;;;;;;3.00;3.00;;;;;17.99;60.24;101117.84;5018502;28;45834;-81
2021/07/29 04:57:45;;;;;;;;;3.50;2.50;;;;;18.00;60.33;101131.00;5007027;28;45328;-85
2021/07/29 05:00:14;;;;;;;;;3.00;2.50;;;;;18.01;60.56;101121.38;5005520;28;45551;-85
2021/07/29 05:02:40;;;;;;;;;3.00;2.00;;;;;18.02;60.53;101120.53;5000090;28;46134;-85
2021/07/29 05:05:06;;;;;;;;;3.25;3.25;;;;;18.05;60.62;101120.59;4996444;28;45356;-81
2021/07/29 05:07:32;;;;;;;;;5.25;4.25;;;;;18.05;60.13;101124.09;4997372;28;45344;-83
2021/07/29 05:09:57;;;;;;;;;3.25;3.25;;;;;18.04;60.45;101124.94;4997732;28;45483;-85
2021/07/29 05:12:24;;;;;;;;;2.50;2.00;;;;;18.03;60.65;101117.94;5000900;28;45482;-84
2021/07/29 05:14:56;;;;;;;;;2.50;2.50;;;;;18.01;60.06;101124.91;5016331;28;45753;-82
2021/07/29 05:17:22;;;;;;;;;4.00;2.50;;;;;18.00;60.60;101124.84;5015736;28;45342;-80
2021/07/29 05:19:48;;;;;;;;;3.50;2.25;;;;;18.02;60.70;101131.03;4998480;28;45300;-81
2021/07/29 05:22:15;;;;;;;;;4.50;4.25;;;;;18.07;60.53;101129.38;5016389;28;45431;-83
2021/07/29 05:24:40;;;;;;;;;2.00;2.00;;;;;18.08;60.07;101133.78;5014628;28;45722;-80
2021/07/29 05:27:06;;;;;;;;;2.00;2.00;;;;;18.09;60.42;101125.03;4997958;28;45374;-84
2021/07/29 05:29:32;;;;;;;;;3.50;2.25;;;;;18.10;59.94;101132.94;5017040;28;45235;-83
2021/07/29 05:31:58;;;;;;;;;3.25;3.25;;;;;18.10;59.82;101135.56;5016881;28;46235;-83
2021/07/29 05:34:24;;;;;;;;;5.00;2.75;;;;;18.13;60.18;101139.09;5016373;28;45368;-84
2021/07/29 05:36:49;;;;;;;;;2.75;2.50;;;;;18.13;60.16;101134.72;5017175;28;45340;-82
2021/07/29 05:39:15;;;;;;;;;3.50;3.50;;;;;18.14;60.26;101140.88;5023088;28;45488;-83
2021/07/29 05:41:41;;;;;;;;;4.25;2.00;;;;;18.13;59.75;101139.97;5017722;28;45891;-83
2021/07/29 05:44:06;;;;;;;;;3.25;2.00;;;;;18.10;60.50;101137.28;4996614;28;45282;-83
2021/07/29 05:46:32;;;;;;;;;1.75;1.75;;;;;18.12;60.17;101140.81;4997358;28;45336;-81
2021/07/29 05:48:57;;;;;;;;;3.50;1.00;;;;;18.15;60.06;101146.13;5007490;28;45261;-84
2021/07/29 05:51:23;;;;;;;;;1.50;1.50;;;;;18.17;60.19;101144.44;4996625;28;45316;-84
2021/07/29 05:53:48;;;;;;;;;4.25;2.50;;;;;18.14;60.24;101146.97;4997184;28;45416;-82
2021/07/29 05:56:14;;;;;;;;;7.00;4.00;;;;;18.08;60.29;101144.25;5006080;28;45411;-84
2021/07/29 05:58:41;;;;;;;;;3.75;3.00;;;;;18.04;60.40;101140.66;5007288;28;45429;-83
2021/07/29 06:01:09;;;;;;;;;3.00;2.00;;;;;18.00;60.55;101145.81;5002144;28;47701;-83
2021/07/29 06:03:35;;;;;;;;;3.50;2.75;;;;;17.99;60.85;101133.56;5011755;28;45440;-83
2021/07/29 06:06:01;;;;;;;;;2.75;2.75;;;;;17.98;60.34;101143.19;5009227;28;45356;-83
2021/07/29 06:08:26;;;;;;;;;3.25;1.75;;;;;17.97;60.92;101149.28;5007975;28;45430;-84
2021/07/29 06:10:52;;;;;;;;;2.50;2.00;;;;;17.92;61.27;101148.28;5004590;28;45293;-82
2021/07/29 06:13:18;;;;;;;;;2.50;2.50;;;;;17.93;60.71;101155.25;5009400;28;45281;-81
2021/07/29 06:15:43;;;;;;;;;4.00;3.00;;;;;17.94;60.61;101155.31;5004423;28;45399;-81
2021/07/29 06:18:11;;;;;;;;;4.75;2.50;;;;;17.97;60.91;101165.00;4997601;28;45479;-78
2021/07/29 06:20:37;;;;;;;;;4.00;4.00;;;;;18.01;60.67;101165.94;4997497;28;46043;-81
2021/07/29 06:23:03;;;;;;;;;4.75;4.00;;;;;17.99;60.72;101158.06;4997337;28;45453;-80
2021/07/29 06:25:28;;;;;;;;;2.75;2.00;;;;;18.01;60.83;101158.06;5000187;28;45328;-78
2021/07/29 06:27:54;;;;;;;;;3.00;2.00;;;;;18.01;60.90;101172.06;5008714;28;45542;-78
2021/07/29 06:30:20;;;;;;;;;4.00;3.00;;;;;18.03;61.05;101167.72;5002627;28;46061;-77
2021/07/29 06:32:45;;;;;;;;;6.25;4.00;;;;;18.05;61.00;101179.13;5006917;28;45581;-77
2021/07/29 06:35:12;;;;;;;;;2.00;2.00;;;;;18.07;60.69;101168.69;5013358;28;45403;-77
2021/07/29 06:37:38;;;;;;;;;3.50;3.50;;;;;18.05;61.08;101173.88;5014307;28;45248;-80
2021/07/29 06:40:06;;;;;;;;;2.00;2.00;;;;;18.07;60.64;101168.69;4997277;28;46172;-87
2021/07/29 06:42:31;;;;;;;;;3.00;3.00;;;;;18.12;60.82;101174.88;5004221;28;45321;-84
2021/07/29 06:44:57;;;;;;;;;3.50;3.00;;;;;18.14;60.29;101173.19;5006155;28;45267;-86
2021/07/29 06:47:23;;;;;;;;;4.00;2.50;;;;;18.17;60.34;101177.59;5005430;28;45332;-89
2021/07/29 06:49:50;;;;;;;;;2.00;2.00;;;;;18.21;60.33;101182.06;5008786;28;45499;-77
2021/07/29 06:52:16;;;;;;;;;3.00;2.75;;;;;18.24;60.50;101176.88;5006276;28;45742;-80
2021/07/29 06:54:42;;;;;;;;;3.50;3.00;;;;;18.31;60.01;101184.00;5014432;28;45424;-79
2021/07/29 06:57:09;;;;;;;;;3.00;2.50;;;;;18.36;60.19;101186.69;5015571;28;45435;-80
2021/07/29 06:59:35;;;;;;;;;3.00;3.00;;;;;18.39;60.05;101195.50;5013719;28;45850;-80
2021/07/29 07:02:01;;;;;;;;;3.25;3.25;;;;;18.38;60.02;101188.47;4998703;28;45490;-80
2021/07/29 07:04:27;;;;;;;;;3.00;3.00;;;;;18.42;59.67;101186.78;4999114;28;45535;-80
2021/07/29 07:06:53;;;;;;;;;5.75;3.00;;;;;18.46;59.56;101193.00;5014958;28;45522;-80
2021/07/29 07:09:19;;;;;;;;;5.00;5.00;;;;;18.52;59.70;101200.97;5014143;28;45956;-79
2021/07/29 07:11:45;;;;;;;;;3.00;3.00;;;;;18.56;59.26;101195.81;5016001;28;45360;-80
2021/07/29 07:14:10;;;;;;;;;5.00;4.00;;;;;18.59;58.72;101200.22;4995708;28;45377;-82
2021/07/29 07:16:37;;;;;;;;;6.00;4.00;;;;;18.59;58.38;101201.97;4995813;28;45485;-80
2021/07/29 07:19:05;;;;;;;;;4.50;3.25;;;;;18.57;58.48;101207.19;4995861;28;45502;-80
2021/07/29 07:21:31;;;;;;;;;2.00;2.00;;;;;18.54;58.56;101210.63;5010230;28;45356;-81
2021/07/29 07:23:57;;;;;;;;;2.75;2.50;;;;;18.54;58.67;101208.00;5014402;28;45370;-80
2021/07/29 07:26:24;;;;;;;;;4.50;3.75;;;;;18.56;58.30;101214.16;5013825;28;45563;-79
2021/07/29 07:28:51;;;;;;;;;4.25;4.00;;;;;18.56;58.48;101206.31;5014968;28;45448;-77
2021/07/29 07:31:18;;;;;;;;;4.00;4.00;;;;;18.65;58.94;101209.94;5001350;28;45767;-82
2021/07/29 07:33:44;;;;;;;;;3.75;3.00;;;;;18.72;58.08;101212.69;5002151;28;45299;-80
2021/07/29 07:36:10;;;;;;;;;4.00;3.50;;;;;18.74;58.29;101210.09;4998563;28;45236;-81
2021/07/29 07:38:36;;;;;;;;;2.25;2.25;;;;;18.77;58.02;101204.91;5011275;28;46180;-80
2021/07/29 07:41:05;;;;;;;;;4.75;3.25;;;;;18.87;57.93;101212.06;5017761;28;45323;-80
2021/07/29 07:43:31;;;;;;;;;2.00;2.00;;;;;18.95;57.91;101217.50;5017275;28;45418;-80
2021/07/29 07:45:57;;;;;;;;;3.25;3.25;;;;;18.96;57.58;101208.78;5017423;28;45418;-80
2021/07/29 07:48:23;;;;;;;;;2.50;2.00;;;;;18.95;57.90;101203.50;5017698;28;46067;-79
2021/07/29 07:50:48;;;;;;;;;3.00;3.00;;;;;18.98;57.77;101212.31;5017848;28;45301;-81
2021/07/29 07:53:14;;;;;;;;;5.75;3.50;;;;;19.01;58.06;101209.72;5018006;28;45327;-81
2021/07/29 07:55:39;;;;;;;;;3.75;3.50;;;;;19.00;57.39;101207.97;5009617;28;46142;-81
2021/07/29 07:58:05;;;;;;;;;4.25;4.00;;;;;19.00;57.53;101197.47;5017472;28;45336;-79
2021/07/29 08:00:31;;;;;;;;;4.25;4.25;;;;;19.05;57.24;101199.28;5017682;28;45253;-80
2021/07/29 08:02:56;;;;;;;;;4.00;3.00;;;;;19.10;56.68;101200.25;5010224;28;45260;-81
2021/07/29 08:05:22;;;;;;;;;4.00;2.25;;;;;19.10;56.23;101206.38;4999399;28;45590;-81
2021/07/29 08:07:47;;;;;;;;;4.00;2.00;;;;;19.13;55.83;101210.78;5005555;28;46440;-79
2021/07/29 08:10:13;;;;;;;;;3.00;2.75;;;;;19.17;55.60;101212.59;4998095;28;45376;-83
2021/07/29 08:12:38;;;;;;;;;3.00;2.00;;;;;19.20;55.54;101204.78;4997775;28;45361;-85
2021/07/29 08:15:06;;;;;;;;;2.00;2.00;;;;;19.23;55.41;101210.06;4998849;28;45501;-80
2021/07/29 08:17:31;;;;;;;;;3.50;2.00;;;;;19.25;53.79;101210.09;4999161;28;45353;-83
2021/07/29 08:19:57;;;;;;;;;3.25;1.00;;;;;19.27;52.63;101208.38;5010238;28;45476;-80
2021/07/29 08:22:22;;;;;;;;;3.00;2.25;;;;;19.26;52.72;101217.97;5015494;28;45400;-84
2021/07/29 08:24:48;;;;;;;;;6.75;2.25;;;;;19.28;52.96;101204.88;5018427;28;45569;-83
2021/07/29 08:27:13;;;;;;;;;2.00;2.00;;;;;19.32;52.59;101206.69;5000723;28;46187;-82
2021/07/29 08:29:39;;;;;;;;;5.00;2.75;;;;;19.43;52.73;101206.88;5014873;28;46543;-81
2021/07/29 08:32:06;;;;;;;;;2.00;2.00;;;;;19.52;52.52;101200.84;5016027;28;45371;-82
2021/07/29 08:34:31;;;;;;;;;2.50;2.00;;;;;19.59;52.24;101197.47;5008519;28;45202;-84
2021/07/29 08:36:57;;;;;;;;;1.75;1.75;;;;;19.65;52.40;101203.66;5001832;28;46575;-80
2021/07/29 08:39:22;;;;;;;;;1.25;1.00;;;;;19.69;51.69;101208.97;5009391;28;45335;-84
2021/07/29 08:41:48;;;;;;;;;1.75;1.75;;;;;19.70;51.24;101201.13;5012873;28;46622;-82
2021/07/29 08:44:14;;;;;;;;;1.75;1.75;;;;;19.72;50.92;101196.75;5017560;28;45616;-80
2021/07/29 08:46:44;;;;;;;;;1.50;1.50;;;;;19.74;50.97;101199.41;5010630;28;45798;-80
2021/07/29 08:49:10;;;;;;;;;2.75;2.75;;;;;19.76;51.49;101209.06;5016498;28;45455;-80
2021/07/29 08:51:36;;;;;;;;;4.00;4.00;;;;;19.82;51.90;101200.38;5016842;28;45364;-80
2021/07/29 08:54:07;;;;;;;;;2.00;2.00;;;;;19.87;50.74;101201.34;4998396;28;45512;-83
2021/07/29 08:56:33;;;;;;;;;1.50;1.50;;;;;19.90;51.15;101196.13;5001223;28;45474;-81
2021/07/29 08:58:59;;;;;;;;;1.50;1.50;;;;;19.95;50.78;101190.94;5010709;28;45478;-84
2021/07/29 09:01:44;;;;;;;;;4.00;3.00;;;;;20.00;50.47;101197.13;5014653;28;45344;-82
2021/07/29 09:04:15;;;;;;;;;3.00;2.00;;;;;20.02;51.01;101190.16;5016574;28;45242;-82
2021/07/29 09:07:02;;;;;;;;;3.75;3.75;;;;;20.07;50.96;101187.59;5016478;28;45371;-83
2021/07/29 09:09:47;;;;;;;;;4.25;4.00;;;;;20.10;51.01;101192.84;5015283;28;45407;-84
2021/07/29 09:12:16;;;;;;;;;1.25;1.25;;;;;20.17;50.25;101199.06;5016590;28;45399;-81
2021/07/29 09:14:42;;;;;;;;;3.00;2.00;;;;;20.15;49.74;101199.06;5016907;28;45232;-81
2021/07/29 09:17:08;;;;;;;;;2.00;2.00;;;;;20.17;49.43;101197.34;5016218;28;45990;-82
2021/07/29 09:19:36;;;;;;;;;1.25;1.25;;;;;20.16;50.01;101192.94;5016527;28;45383;-82
2021/07/29 09:22:08;;;;;;;;;1.00;1.00;;;;;20.19;49.84;101190.31;5016212;28;45433;-83
2021/07/29 09:24:34;;;;;;;;;1.00;1.00;;;;;20.26;49.04;101196.53;5016583;28;45612;-82
2021/07/29 09:27:00;;;;;;;;;1.75;1.50;;;;;20.29;49.18;101178.19;5016181;28;45467;-81
2021/07/29 09:29:28;;;;;;;;;4.00;2.00;;;;;20.29;48.91;101179.94;5016301;28;45766;-82
2021/07/29 09:32:11;;;;;;;;;3.00;2.00;;;;;20.24;48.19;101180.75;5017097;28;45465;-83
2021/07/29 09:35:02;;;;;;;;;2.25;2.25;;;;;20.23;48.89;101172.88;5018104;28;45418;-81
2021/07/29 09:37:28;;;;;;;;;2.50;2.50;;;;;20.16;48.90;101164.03;5032862;28;48188;-84
2021/07/29 09:40:01;;;;;;;;;3.00;2.00;;;;;20.19;48.53;101182.44;5017717;28;45234;-81
2021/07/29 09:42:27;;;;;;;;;3.00;1.25;;;;;20.16;48.93;101177.16;5016256;28;45327;-83
2021/07/29 09:44:54;;;;;;;;;2.25;2.25;;;;;20.19;47.95;101163.16;5017050;28;45611;-83
2021/07/29 09:47:21;;;;;;;;;2.25;2.25;;;;;20.23;48.02;101171.09;5016777;28;46271;-78
2021/07/29 09:49:51;;;;;;;;;1.75;1.75;;;;;20.28;47.50;101171.16;5016620;28;45465;-79
2021/07/29 09:52:17;;;;;;;;;2.00;2.00;;;;;20.31;47.57;101172.91;5016727;28;45253;-80
2021/07/29 09:54:47;;;;;;;;;4.00;2.75;;;;;20.35;47.47;101177.34;5017147;28;45274;-79
2021/07/29 09:57:13;;;;;;;;;4.00;2.00;;;;;20.37;46.72;101191.41;5015797;28;46101;-81
2021/07/29 09:59:39;;;;;;;;;2.00;2.00;;;;;20.35;46.62;101188.78;5024658;28;45405;-78
2021/07/29 10:02:06;;;;;;;;;2.00;2.00;;;;;20.37;46.74;101181.75;5016083;28;45388;-81
2021/07/29 10:04:35;;;;;;;;;2.75;2.00;;;;;20.40;46.38;101171.28;5015642;28;45554;-81
2021/07/29 10:07:05;;;;;;;;;3.00;2.25;;;;;20.49;46.50;101172.22;5015445;28;45412;-79
2021/07/29 10:09:34;;;;;;;;;2.00;1.00;;;;;20.59;46.90;101174.06;5015909;28;45732;-79
2021/07/29 10:12:00;;;;;;;;;3.00;1.50;;;;;20.65;46.40;101165.34;5014288;28;45392;-81
2021/07/29 10:14:46;;;;;;;;;2.50;2.50;;;;;20.69;45.84;101168.03;5016441;28;45430;-80
2021/07/29 10:17:11;;;;;;;;;2.00;2.00;;;;;20.70;46.29;101175.06;5015564;28;45296;-78
2021/07/29 10:20:16;;;;;;;;;3.25;2.00;;;;;20.72;46.03;101161.94;5015998;28;45497;-78
2021/07/29 10:22:43;;;;;;;;;2.00;2.00;;;;;20.77;46.10;101165.50;5015526;28;45280;-82
2021/07/29 10:25:09;;;;;;;;;2.25;2.25;;;;;20.86;45.59;101184.00;5014102;28;45442;-77
2021/07/29 10:27:35;;;;;;;;;3.25;1.25;;;;;20.86;44.85;101170.84;5015479;28;45522;-78
2021/07/29 10:30:19;;;;;;;;;2.00;2.00;;;;;20.86;44.42;101168.19;5015403;28;45245;-81
2021/07/29 10:32:49;;;;;;;;;1.00;1.00;;;;;20.86;44.56;101165.56;5014662;28;45334;-78
2021/07/29 10:35:30;;;;;;;;;2.00;2.00;;;;;20.91;44.82;101156.84;5016189;28;45467;-80
2021/07/29 10:37:57;;;;;;;;;3.25;2.00;;;;;20.95;44.28;101156.88;5015447;28;46531;-82
2021/07/29 10:40:33;;;;;;;;;1.00;1.00;;;;;20.99;44.78;101155.13;5015518;28;45365;-81
2021/07/29 10:43:24;;;;;;;;;1.25;1.25;;;;;21.01;43.29;101154.28;5015309;28;45348;-80
2021/07/29 10:46:01;;;;;;;;;3.00;3.00;;;;;21.05;44.17;101159.56;5015719;28;45293;-78
2021/07/29 10:48:39;;;;;;;;;1.50;1.50;;;;;21.05;44.30;101155.19;5015304;28;45631;-79
2021/07/29 10:51:15;;;;;;;;;2.25;2.00;;;;;21.14;43.73;101151.72;5014915;28;45645;-79
2021/07/29 10:53:42;;;;;;;;;3.75;2.50;;;;;21.18;44.06;101154.38;5015527;28;45426;-80
2021/07/29 10:56:15;;;;;;;;;4.25;3.00;;;;;21.20;43.01;101170.22;5015343;28;45561;-80
2021/07/29 10:58:44;;;;;;;;;3.00;2.25;;;;;21.19;43.67;101163.19;5015324;28;46569;-79
2021/07/29 11:01:11;;;;;;;;;2.00;1.00;;;;;21.22;44.05;101163.19;5014101;28;45500;-80
2021/07/29 11:03:53;;;;;;;;;3.00;3.00;;;;;21.23;43.19;101167.56;5016103;28;45391;-79
2021/07/29 11:06:37;;;;;;;;;1.00;1.00;;;;;21.16;43.26;101160.53;5019435;28;45352;-80
2021/07/29 11:09:15;;;;;;;;;2.50;2.50;;;;;21.11;43.19;101149.09;5018913;28;45578;-80
2021/07/29 11:11:43;;;;;;;;;3.00;1.25;;;;;21.10;43.44;101157.84;5019037;28;45714;-78
2021/07/29 11:14:10;;;;;;;;;3.00;1.75;;;;;21.10;42.80;101155.22;5018795;28;45375;-83
2021/07/29 11:16:37;;;;;;;;;4.00;4.00;;;;;21.10;42.54;101144.69;5018987;28;45533;-81
2021/07/29 11:19:04;;;;;;;;;1.00;1.00;;;;;21.14;42.39;101159.63;5018243;28;45342;-79
2021/07/29 11:21:30;;;;;;;;;3.00;1.75;;;;;21.17;42.58;101147.34;5018962;28;45311;-79
2021/07/29 11:23:56;;;;;;;;;3.25;3.25;;;;;21.27;43.11;101143.03;5020966;28;45336;-82
2021/07/29 11:26:22;;;;;;;;;2.25;2.25;;;;;21.37;42.40;101148.34;5019108;28;45494;-82